createdAt,value
2023-05-05T00:00:59.079Z,14.90
2023-05-05T00:03:26.351Z,14.75
2023-05-05T00:05:57.654Z,15.25
2023-05-05T00:08:24.704Z,15.44
2023-05-05T00:10:52.997Z,15.84
2023-05-05T00:13:20.869Z,15.19
2023-05-05T00:15:49.886Z,15.37
2023-05-05T00:18:18.332Z,15.67
2023-05-05T00:20:47.549Z,15.84
2023-05-05T00:23:15.471Z,15.56
2023-05-05T00:25:42.408Z,15.28
2023-05-05T00:28:09.271Z,15.39
2023-05-05T00:30:36.537Z,15.26
2023-05-05T00:33:03.566Z,15.29
2023-05-05T00:35:30.523Z,15.30
2023-05-05T00:37:57.380Z,15.01
2023-05-05T00:40:25.420Z,14.55
2023-05-05T00:42:52.540Z,14.34
2023-05-05T00:45:20.558Z,13.85
2023-05-05T00:47:53.566Z,13.81
2023-05-05T00:50:30.937Z,14.21
2023-05-05T00:53:00.852Z,14.04
2023-05-05T00:55:29.189Z,13.62
2023-05-05T00:57:57.405Z,13.06
2023-05-05T01:00:24.595Z,14.05
2023-05-05T01:02:52.784Z,14.08
2023-05-05T01:05:20.933Z,13.72
2023-05-05T01:08:15.395Z,13.94
2023-05-05T01:10:49.338Z,13.77
2023-05-05T01:13:28.346Z,14.04
2023-05-05T01:16:13.511Z,13.36
2023-05-05T01:19:02.625Z,13.73
2023-05-05T01:21:32.834Z,13.71
2023-05-05T01:24:21.206Z,14.25
2023-05-05T01:27:27.363Z,14.57
2023-05-05T01:30:31.366Z,14.32
2023-05-05T01:33:04.283Z,14.38
2023-05-05T01:35:36.406Z,15.08
2023-05-05T01:38:10.047Z,15.09
2023-05-05T01:40:45.654Z,15.11
2023-05-05T01:43:14.092Z,14.13
2023-05-05T01:45:43.143Z,14.22
2023-05-05T01:48:12.681Z,14.54
2023-05-05T01:50:41.868Z,14.19
2023-05-05T01:53:09.815Z,14.62
2023-05-05T01:55:38.822Z,14.29
2023-05-05T01:58:07.810Z,13.97
2023-05-05T02:00:35.024Z,14.29
2023-05-05T02:03:04.599Z,13.88
2023-05-05T02:05:33.168Z,13.90
2023-05-05T02:08:00.656Z,14.03
2023-05-05T02:10:28.380Z,13.91
2023-05-05T02:12:55.848Z,13.85
2023-05-05T02:15:23.836Z,13.69
2023-05-05T02:17:53.033Z,13.97
2023-05-05T02:20:20.944Z,13.68
2023-05-05T02:22:47.824Z,13.25
2023-05-05T02:25:14.985Z,13.76
2023-05-05T02:27:43.593Z,14.53
2023-05-05T02:30:12.525Z,14.50
2023-05-05T02:32:50.678Z,14.17
2023-05-05T02:35:21.256Z,13.94
2023-05-05T02:37:51.919Z,14.19
2023-05-05T02:40:23.214Z,14.31
2023-05-05T02:42:53.819Z,13.65
2023-05-05T02:45:22.025Z,14.11
2023-05-05T02:47:49.380Z,14.81
2023-05-05T02:50:16.298Z,14.34
2023-05-05T02:52:43.580Z,13.87
2023-05-05T02:55:11.126Z,13.66
2023-05-05T02:57:48.001Z,13.81
2023-05-05T03:00:52.481Z,13.66
2023-05-05T03:03:47.634Z,13.75
2023-05-05T03:06:17.922Z,14.24
2023-05-05T03:08:52.185Z,14.10
2023-05-05T03:11:26.952Z,14.19
2023-05-05T03:14:04.908Z,14.10
2023-05-05T03:16:32.602Z,13.60
2023-05-05T03:19:00.029Z,13.82
2023-05-05T03:21:27.001Z,14.11
2023-05-05T03:23:53.880Z,13.73
2023-05-05T03:26:20.738Z,13.54
2023-05-05T03:28:47.585Z,13.19
2023-05-05T03:31:14.784Z,12.40
2023-05-05T03:33:41.666Z,10.65
2023-05-05T03:36:08.612Z,11.50
2023-05-05T03:38:35.482Z,12.71
2023-05-05T03:41:03.734Z,13.14
2023-05-05T03:43:30.664Z,13.84
2023-05-05T03:45:57.527Z,14.02
2023-05-05T03:48:24.469Z,14.08
2023-05-05T03:50:51.302Z,13.48
2023-05-05T03:53:18.117Z,13.28
2023-05-05T03:55:45.020Z,12.53
2023-05-05T03:58:11.849Z,12.83
2023-05-05T04:00:38.750Z,13.01
2023-05-05T04:03:06.086Z,13.15
2023-05-05T04:05:32.954Z,13.88
2023-05-05T04:07:59.977Z,14.36
2023-05-05T04:10:27.505Z,14.57
2023-05-05T04:12:54.417Z,15.17
2023-05-05T04:15:21.359Z,15.98
2023-05-05T04:17:48.225Z,16.71
2023-05-05T04:20:15.119Z,17.54
2023-05-05T04:22:41.970Z,17.58
2023-05-05T04:25:09.358Z,17.44
2023-05-05T04:27:36.302Z,17.93
2023-05-05T04:30:03.355Z,18.09
2023-05-05T04:32:30.396Z,18.46
2023-05-05T04:34:57.265Z,19.06
2023-05-05T04:37:25.386Z,18.43
2023-05-05T04:39:52.586Z,19.61
2023-05-05T04:42:19.478Z,20.24
2023-05-05T04:44:46.406Z,20.79
2023-05-05T04:47:14.692Z,21.51
2023-05-05T04:49:41.793Z,21.30
2023-05-05T04:52:08.689Z,21.11
2023-05-05T04:54:37.068Z,20.67
2023-05-05T04:57:04.246Z,21.45
2023-05-05T04:59:31.151Z,21.90
2023-05-05T05:01:58.090Z,22.57
2023-05-05T05:04:26.090Z,23.48
2023-05-05T05:06:53.184Z,24.63
2023-05-05T05:09:20.036Z,25.73
2023-05-05T05:11:46.825Z,25.99
2023-05-05T05:14:13.626Z,26.01
2023-05-05T05:16:40.544Z,26.51
2023-05-05T05:19:07.419Z,27.04
2023-05-05T05:21:34.274Z,27.46
2023-05-05T05:24:01.124Z,28.24
2023-05-05T05:26:28.177Z,28.32
2023-05-05T05:28:55.008Z,28.47
2023-05-05T05:31:21.952Z,28.52
2023-05-05T05:33:48.781Z,28.85
2023-05-05T05:36:15.985Z,28.21
2023-05-05T05:38:42.848Z,28.31
2023-05-05T05:41:09.687Z,28.99
2023-05-05T05:43:36.522Z,29.09
2023-05-05T05:46:03.438Z,29.28
2023-05-05T05:48:30.344Z,29.22
2023-05-05T05:50:57.300Z,28.67
2023-05-05T05:53:24.147Z,29.28
2023-05-05T05:55:51.019Z,29.20
2023-05-05T05:58:18.615Z,28.14
2023-05-05T06:00:45.625Z,27.95
2023-05-05T06:03:12.693Z,24.62
2023-05-05T06:05:39.804Z,25.77
2023-05-05T06:08:06.642Z,24.53
2023-05-05T06:10:33.895Z,24.73
2023-05-05T06:13:01.049Z,23.88
2023-05-05T06:15:27.996Z,22.95
2023-05-05T06:17:54.926Z,21.82
2023-05-05T06:20:21.893Z,20.37
2023-05-05T06:22:48.725Z,21.18
2023-05-05T06:25:15.786Z,21.53
2023-05-05T06:27:42.844Z,20.61
2023-05-05T06:30:10.544Z,20.86
2023-05-05T06:32:37.960Z,21.78
2023-05-05T06:35:05.260Z,23.19
2023-05-05T06:37:32.137Z,23.42
2023-05-05T06:39:59.488Z,22.98
2023-05-05T06:42:26.289Z,23.61
2023-05-05T06:44:53.234Z,23.31
2023-05-05T06:47:20.248Z,22.30
2023-05-05T06:49:47.119Z,21.46
2023-05-05T06:52:13.958Z,22.67
2023-05-05T06:54:40.827Z,23.20
2023-05-05T06:57:07.718Z,23.81
2023-05-05T06:59:34.574Z,23.59
2023-05-05T07:02:01.419Z,23.38
2023-05-05T07:04:28.361Z,24.00
2023-05-05T07:06:55.456Z,24.43
2023-05-05T07:09:22.296Z,23.22
2023-05-05T07:11:49.195Z,24.73
2023-05-05T07:14:16.070Z,25.02
2023-05-05T07:16:42.967Z,25.59
2023-05-05T07:19:09.939Z,25.67
2023-05-05T07:21:36.921Z,25.02
2023-05-05T07:24:04.252Z,26.50
2023-05-05T07:26:31.328Z,25.57
2023-05-05T07:28:59.177Z,24.49
2023-05-05T07:31:26.746Z,24.89
2023-05-05T07:33:53.891Z,25.27
2023-05-05T07:36:20.990Z,25.73
2023-05-05T07:38:47.933Z,26.30
2023-05-05T07:41:14.754Z,25.33
2023-05-05T07:43:44.250Z,26.78
2023-05-05T07:46:12.073Z,27.16
2023-05-05T07:48:41.501Z,26.88
2023-05-05T07:51:08.970Z,26.04
2023-05-05T07:53:35.884Z,26.60
2023-05-05T07:56:02.931Z,26.99
2023-05-05T07:58:29.783Z,26.06
2023-05-05T08:00:56.709Z,25.66
2023-05-05T08:03:25.069Z,25.55
2023-05-05T08:05:54.432Z,26.38
2023-05-05T08:08:27.060Z,26.55
2023-05-05T08:10:54.655Z,27.48
2023-05-05T08:13:21.518Z,27.61
2023-05-05T08:15:48.379Z,27.20
2023-05-05T08:18:15.524Z,26.61
2023-05-05T08:20:45.041Z,27.10
2023-05-05T08:23:11.965Z,24.55
2023-05-05T08:25:38.798Z,25.12
2023-05-05T08:28:05.638Z,26.61
2023-05-05T08:30:32.492Z,27.06
2023-05-05T08:33:00.354Z,28.75
2023-05-05T08:35:27.245Z,29.00
2023-05-05T08:37:57.272Z,28.74
2023-05-05T08:40:30.600Z,29.05
2023-05-05T08:42:57.437Z,28.03
2023-05-05T08:45:24.399Z,27.21
2023-05-05T08:47:51.336Z,27.89
2023-05-05T08:50:20.016Z,29.69
2023-05-05T08:52:49.189Z,29.51
2023-05-05T08:55:25.717Z,28.65
2023-05-05T08:57:55.162Z,28.05
2023-05-05T09:00:22.475Z,27.47
2023-05-05T09:02:49.676Z,28.43
2023-05-05T09:05:18.235Z,27.48
2023-05-05T09:07:45.415Z,28.60
2023-05-05T09:10:12.900Z,28.85
2023-05-05T09:12:40.598Z,28.87
2023-05-05T09:15:12.568Z,28.32
2023-05-05T09:17:40.264Z,27.52
2023-05-05T09:20:09.987Z,27.54
2023-05-05T09:22:46.779Z,27.73
2023-05-05T09:25:17.356Z,27.55
2023-05-05T09:27:46.681Z,26.57
2023-05-05T09:30:18.311Z,27.26
2023-05-05T09:32:50.735Z,26.70
2023-05-05T09:35:18.793Z,26.95
2023-05-05T09:37:46.047Z,27.92
2023-05-05T09:40:18.356Z,26.90
2023-05-05T09:42:45.369Z,25.21
2023-05-05T09:45:18.648Z,25.50
2023-05-05T09:47:47.277Z,26.16
2023-05-05T09:50:16.364Z,26.70
2023-05-05T09:52:43.418Z,25.98
2023-05-05T09:55:19.208Z,25.79
2023-05-05T09:57:47.539Z,25.54
2023-05-05T10:00:14.946Z,27.21
2023-05-05T10:02:42.194Z,27.65
2023-05-05T10:05:14.824Z,27.93
2023-05-05T10:07:43.874Z,29.15
2023-05-05T10:10:16.510Z,28.62
2023-05-05T10:12:44.209Z,28.37
2023-05-05T10:15:12.163Z,27.71
2023-05-05T10:18:02.439Z,28.76
2023-05-05T10:20:33.684Z,28.01
2023-05-05T10:23:01.609Z,27.14
2023-05-05T10:25:35.711Z,25.12
2023-05-05T10:28:06.435Z,24.55
2023-05-05T10:30:37.295Z,24.12
2023-05-05T10:33:30.318Z,25.19
2023-05-05T10:35:58.373Z,26.14
2023-05-05T10:38:26.824Z,26.05
2023-05-05T10:40:54.741Z,26.09
2023-05-05T10:43:21.686Z,26.50
2023-05-05T10:45:48.752Z,26.85
2023-05-05T10:48:40.796Z,27.08
2023-05-05T10:51:38.384Z,26.43
2023-05-05T10:54:14.313Z,27.11
2023-05-05T10:56:42.496Z,26.89
2023-05-05T11:00:06.661Z,27.35
2023-05-05T11:02:34.225Z,27.91
2023-05-05T11:05:14.457Z,29.34
2023-05-05T11:07:42.516Z,29.30
2023-05-05T11:10:23.744Z,28.74
2023-05-05T11:13:00.233Z,28.40
2023-05-05T11:15:30.396Z,28.84
2023-05-05T11:17:58.401Z,28.80
2023-05-05T11:20:40.560Z,28.64
2023-05-05T11:23:07.490Z,28.47
2023-05-05T11:25:37.845Z,28.62
2023-05-05T11:28:14.444Z,28.40
2023-05-05T11:30:59.782Z,28.49
2023-05-05T11:33:37.847Z,29.39
2023-05-05T11:36:07.176Z,27.88
2023-05-05T11:38:59.263Z,28.52
2023-05-05T11:41:32.192Z,28.38
2023-05-05T11:44:31.950Z,29.24
2023-05-05T11:47:02.035Z,29.16
2023-05-05T11:49:33.442Z,29.93
2023-05-05T11:52:04.195Z,28.80
2023-05-05T12:06:56.529Z,29.54
2023-05-05T12:09:25.645Z,28.86
2023-05-05T12:11:57.079Z,29.52
2023-05-05T12:14:25.248Z,28.16
2023-05-05T12:17:01.699Z,29.87
2023-05-05T12:19:54.034Z,29.54
2023-05-05T12:22:23.349Z,29.14
2023-05-05T12:30:28.068Z,29.78
2023-05-05T12:33:08.523Z,30.47
2023-05-05T12:38:09.949Z,29.28
2023-05-05T12:40:49.836Z,29.44
2023-05-05T12:43:30.195Z,29.74
2023-05-05T12:46:05.575Z,28.44
2023-05-05T12:48:33.348Z,29.33
2023-05-05T13:03:06.379Z,29.48
2023-05-05T13:17:45.347Z,28.58
2023-05-05T13:20:12.665Z,29.14
2023-05-05T13:22:42.771Z,29.26
2023-05-05T13:25:10.103Z,28.71
2023-05-05T13:27:38.103Z,28.36
2023-05-05T13:30:41.599Z,28.90
2023-05-05T13:33:08.894Z,28.67
2023-05-05T13:35:39.108Z,28.85
2023-05-05T13:43:30.137Z,28.67
2023-05-05T13:46:05.622Z,28.13
2023-05-05T13:48:35.711Z,29.31
2023-05-05T13:51:02.635Z,28.68
2023-05-05T13:53:29.494Z,28.51
2023-05-05T13:55:57.519Z,27.98
2023-05-05T13:58:24.414Z,28.15
2023-05-05T14:00:51.798Z,28.43
2023-05-05T14:03:18.646Z,27.15
2023-05-05T14:05:46.355Z,26.85
2023-05-05T14:08:13.767Z,26.44
2023-05-05T14:10:40.664Z,26.04
2023-05-05T14:13:07.584Z,26.05
2023-05-05T14:15:35.608Z,26.93
2023-05-05T14:18:02.558Z,26.90
2023-05-05T14:20:29.490Z,26.11
2023-05-05T14:22:56.568Z,26.62
2023-05-05T14:25:23.568Z,27.47
2023-05-05T14:27:50.963Z,27.37
2023-05-05T14:30:17.806Z,26.92
2023-05-05T14:32:44.781Z,27.39
2023-05-05T14:35:11.706Z,27.05
2023-05-05T14:37:38.575Z,27.70
2023-05-05T14:40:06.923Z,27.68
2023-05-05T14:42:33.868Z,27.63
2023-05-05T14:45:00.780Z,27.21
2023-05-05T14:47:27.650Z,27.56
2023-05-05T14:49:54.500Z,27.71
2023-05-05T14:52:21.357Z,27.98
2023-05-05T14:54:48.177Z,26.70
2023-05-05T14:57:15.079Z,26.61
2023-05-05T14:59:41.897Z,26.19
2023-05-05T15:02:08.742Z,25.56
2023-05-05T15:04:35.635Z,25.39
2023-05-05T15:07:02.502Z,25.50
2023-05-05T15:09:29.356Z,24.96
2023-05-05T15:11:56.219Z,24.83
2023-05-05T15:14:23.085Z,24.50
2023-05-05T15:16:50.018Z,25.18
2023-05-05T15:19:17.126Z,25.08
2023-05-05T15:21:43.957Z,25.04
2023-05-05T15:24:10.943Z,24.63
2023-05-05T15:26:37.763Z,24.28
2023-05-05T15:29:04.613Z,24.64
2023-05-05T15:31:31.523Z,24.69
2023-05-05T15:33:58.372Z,24.75
2023-05-05T15:36:25.220Z,24.84
2023-05-05T15:38:52.217Z,24.78
2023-05-05T15:41:19.101Z,24.90
2023-05-05T15:43:45.999Z,24.59
2023-05-05T15:46:12.884Z,24.77
2023-05-05T15:48:39.748Z,24.57
2023-05-05T15:51:06.627Z,24.42
2023-05-05T15:53:34.022Z,24.76
2023-05-05T15:56:00.930Z,25.00
2023-05-05T15:58:27.784Z,25.16
2023-05-05T16:00:54.707Z,25.07
2023-05-05T16:03:21.739Z,24.77
2023-05-05T16:05:48.717Z,24.97
2023-05-05T16:08:15.576Z,24.76
2023-05-05T16:10:42.526Z,25.06
2023-05-05T16:13:09.451Z,25.54
2023-05-05T16:15:36.492Z,25.56
2023-05-05T16:18:03.361Z,25.34
2023-05-05T16:20:30.242Z,25.11
2023-05-05T16:22:57.768Z,24.78
2023-05-05T16:25:24.631Z,24.73
2023-05-05T16:27:52.133Z,25.34
2023-05-05T16:30:19.041Z,25.24
2023-05-05T16:32:47.477Z,24.93
2023-05-05T16:35:14.378Z,25.42
2023-05-05T16:37:41.252Z,24.95
2023-05-05T16:40:08.934Z,25.67
2023-05-05T16:42:35.776Z,24.41
2023-05-05T16:45:02.659Z,23.88
2023-05-05T16:47:29.761Z,23.76
2023-05-05T16:49:56.775Z,23.89
2023-05-05T16:52:23.690Z,23.81
2023-05-05T16:54:55.616Z,24.74
2023-05-05T16:57:23.383Z,24.41
2023-05-05T16:59:50.581Z,24.45
2023-05-05T17:02:17.437Z,25.12
2023-05-05T17:04:44.322Z,24.88
2023-05-05T17:07:11.220Z,25.19
2023-05-05T17:09:38.080Z,25.00
2023-05-05T17:12:05.296Z,25.63
2023-05-05T17:14:33.711Z,24.93
2023-05-05T17:17:00.700Z,25.12
2023-05-05T17:19:27.550Z,25.48
2023-05-05T17:21:55.320Z,25.31
2023-05-05T17:24:22.756Z,24.46
2023-05-05T17:26:50.237Z,24.94
2023-05-05T17:29:19.967Z,25.21
2023-05-05T17:31:47.172Z,25.92
2023-05-05T17:34:14.041Z,25.32
2023-05-05T17:36:41.133Z,25.97
2023-05-05T17:39:08.204Z,25.98
2023-05-05T17:41:35.201Z,25.45
2023-05-05T17:44:02.058Z,25.23
2023-05-05T17:46:29.122Z,25.28
2023-05-05T17:48:56.120Z,25.03
2023-05-05T17:51:23.042Z,25.14
2023-05-05T17:53:49.880Z,24.87
2023-05-05T17:56:16.785Z,25.63
2023-05-05T17:58:43.617Z,25.32
2023-05-05T18:01:13.686Z,25.13
2023-05-05T18:03:41.213Z,25.29
2023-05-05T18:06:08.181Z,25.53
2023-05-05T18:08:35.030Z,24.67
2023-05-05T18:11:02.010Z,24.87
2023-05-05T18:13:28.878Z,24.64
2023-05-05T18:15:55.849Z,24.43
2023-05-05T18:18:23.470Z,24.43
2023-05-05T18:20:50.433Z,24.09
2023-05-05T18:23:17.341Z,24.31
2023-05-05T18:25:44.184Z,24.90
2023-05-05T18:28:11.143Z,24.89
2023-05-05T18:30:38.043Z,24.49
2023-05-05T18:33:05.173Z,24.90
2023-05-05T18:35:32.152Z,24.52
2023-05-05T18:37:59.004Z,24.04
2023-05-05T18:40:25.864Z,24.22
2023-05-05T18:42:52.846Z,23.74
2023-05-05T18:45:19.904Z,23.74
2023-05-05T18:47:46.781Z,23.59
2023-05-05T18:50:13.804Z,23.62
2023-05-05T18:52:40.711Z,23.11
2023-05-05T18:55:08.128Z,22.85
2023-05-05T18:57:35.224Z,22.67
2023-05-05T19:00:02.111Z,22.38
2023-05-05T19:02:29.115Z,21.42
2023-05-05T19:04:56.204Z,21.35
2023-05-05T19:10:10.485Z,20.75
2023-05-05T19:12:37.703Z,21.00
2023-05-05T19:15:04.799Z,20.38
2023-05-05T19:17:31.659Z,20.67
2023-05-05T19:19:59.043Z,21.32
2023-05-05T19:22:25.960Z,21.07
2023-05-05T19:24:52.803Z,20.58
2023-05-05T19:27:19.661Z,20.02
2023-05-05T19:29:49.280Z,19.36
2023-05-05T19:32:16.513Z,19.28
2023-05-05T19:34:43.915Z,18.86
2023-05-05T19:37:10.749Z,19.90
2023-05-05T19:39:37.928Z,20.10
2023-05-05T19:42:04.986Z,20.56
2023-05-05T19:44:31.816Z,19.60
2023-05-05T19:46:58.700Z,19.38
2023-05-05T19:49:25.539Z,19.70
2023-05-05T19:51:52.963Z,19.69
2023-05-05T19:54:19.873Z,20.17
2023-05-05T19:56:46.750Z,20.08
2023-05-05T19:59:13.597Z,19.43
2023-05-05T20:01:40.439Z,18.94
2023-05-05T20:04:07.492Z,19.47
2023-05-05T20:06:34.341Z,19.79
2023-05-05T20:09:02.081Z,19.81
2023-05-05T20:11:29.240Z,19.33
2023-05-05T20:13:56.978Z,19.84
2023-05-05T20:16:23.885Z,20.07
2023-05-05T20:18:51.131Z,19.22
2023-05-05T20:21:18.340Z,19.18
2023-05-05T20:23:46.016Z,19.34
2023-05-05T20:26:13.008Z,18.38
2023-05-05T20:28:43.256Z,17.97
2023-05-05T20:31:11.013Z,17.30
2023-05-05T20:33:37.915Z,18.25
2023-05-05T20:36:05.141Z,18.50
2023-05-05T20:38:31.997Z,17.54
2023-05-05T20:40:59.001Z,18.20
2023-05-05T20:43:25.906Z,18.78
2023-05-05T20:45:53.095Z,19.23
2023-05-05T20:48:19.954Z,19.49
2023-05-05T20:50:46.833Z,18.81
2023-05-05T20:53:14.015Z,19.25
2023-05-05T20:55:40.961Z,18.92
2023-05-05T20:58:07.827Z,19.54
2023-05-05T21:00:34.860Z,19.26
2023-05-05T21:03:03.002Z,19.01
2023-05-05T21:05:31.159Z,18.67
2023-05-05T21:08:00.466Z,18.50
2023-05-05T21:10:28.992Z,18.41
2023-05-05T21:12:56.032Z,19.05
2023-05-05T21:15:23.151Z,18.72
2023-05-05T21:17:50.111Z,18.41
2023-05-05T21:20:18.831Z,18.15
2023-05-05T21:22:46.034Z,18.71
2023-05-05T21:25:22.117Z,18.67
2023-05-05T21:27:49.251Z,18.92
2023-05-05T21:30:16.913Z,18.47
2023-05-05T21:32:44.465Z,18.45
2023-05-05T21:35:11.526Z,18.62
2023-05-05T21:37:41.380Z,18.73
2023-05-05T21:40:13.935Z,18.74
2023-05-05T21:42:41.689Z,18.06
2023-05-05T21:45:10.404Z,17.73
2023-05-05T21:47:37.435Z,18.47
2023-05-05T21:50:04.593Z,18.06
2023-05-05T21:52:31.634Z,18.07
2023-05-05T21:54:58.467Z,17.63
2023-05-05T21:57:25.947Z,17.61
2023-05-05T21:59:52.783Z,17.81
2023-05-05T22:02:19.709Z,17.33
2023-05-05T22:04:48.839Z,17.08
2023-05-05T22:07:15.803Z,17.12
2023-05-05T22:09:43.300Z,17.14
2023-05-05T22:12:10.232Z,16.94
2023-05-05T22:14:37.138Z,16.51
2023-05-05T22:17:04.013Z,16.58
2023-05-05T22:19:31.083Z,16.59
2023-05-05T22:21:58.886Z,16.40
2023-05-05T22:24:25.880Z,16.86
2023-05-05T22:26:53.741Z,16.85
2023-05-05T22:29:20.607Z,17.04
2023-05-05T22:31:47.601Z,17.17
2023-05-05T22:34:14.611Z,17.26
2023-05-05T22:36:42.324Z,17.20
2023-05-05T22:39:09.206Z,16.65
2023-05-05T22:41:36.087Z,17.05
2023-05-05T22:44:02.977Z,17.10
2023-05-05T22:46:29.860Z,17.21
2023-05-05T22:48:56.906Z,17.14
2023-05-05T22:51:23.845Z,17.01
2023-05-05T22:53:51.224Z,16.94
2023-05-05T22:56:18.104Z,17.23
2023-05-05T22:58:46.660Z,17.50
2023-05-05T23:01:13.666Z,17.41
2023-05-05T23:03:40.623Z,17.54
2023-05-05T23:06:07.633Z,17.37
2023-05-05T23:08:34.451Z,16.95
2023-05-05T23:11:01.304Z,16.98
2023-05-05T23:13:28.193Z,17.40
2023-05-05T23:15:55.032Z,17.79
2023-05-05T23:18:21.888Z,17.17
2023-05-05T23:20:48.722Z,17.03
2023-05-05T23:23:15.621Z,17.40
2023-05-05T23:25:42.497Z,17.48
2023-05-05T23:28:10.113Z,17.57
2023-05-05T23:30:36.994Z,16.86
2023-05-05T23:33:04.387Z,16.91
2023-05-05T23:35:31.301Z,16.76
2023-05-05T23:37:58.132Z,16.83
2023-05-05T23:40:24.981Z,16.80
2023-05-05T23:42:51.795Z,17.10
2023-05-05T23:45:19.429Z,17.26
2023-05-05T23:47:46.603Z,17.43
2023-05-05T23:50:13.528Z,16.56
2023-05-05T23:52:40.622Z,17.23
2023-05-05T23:55:08.403Z,17.10
2023-05-05T23:57:35.747Z,17.27
